Time;durP1;ratioP1;P1;durP2;ratioP2;P2;SDS_P1;SDS_P2;PMS_P1;PMS_P2;Temp;Humidity;BMP_temperature;BMP_pressure;BME280_temperature;BME280_humidity;BME280_pressure;Samples;Min_cycle;Max_cycle;Signal;HPM_P1;HPM_P2
2023/03/25 00:01:24;;;;;;;4.73;2.13;;;;;;;;;;5054568;28;20200;-58
2023/03/25 00:03:52;;;;;;;3.23;1.67;;;;;;;;;;5054420;28;20650;-58
2023/03/25 00:06:18;;;;;;;3.07;1.80;;;;;;;;;;5054269;28;20279;-58
2023/03/25 00:08:45;;;;;;;4.03;1.87;;;;;;;;;;5054571;28;20561;-57
2023/03/25 00:11:11;;;;;;;1.93;1.73;;;;;;;;;;5054593;28;20319;-59
2023/03/25 00:13:37;;;;;;;6.43;2.10;;;;;;;;;;5054327;28;20303;-60
2023/03/25 00:16:06;;;;;;;3.63;1.80;;;;;;;;;;5053965;28;20211;-59
2023/03/25 00:18:32;;;;;;;4.20;1.90;;;;;;;;;;5053840;28;20584;-58
2023/03/25 00:20:59;;;;;;;3.97;2.23;;;;;;;;;;5074068;28;20199;-60
2023/03/25 00:23:25;;;;;;;5.33;1.90;;;;;;;;;;5072930;28;20199;-60
2023/03/25 00:25:51;;;;;;;3.57;2.20;;;;;;;;;;5074265;28;20203;-60
2023/03/25 00:28:17;;;;;;;3.70;1.93;;;;;;;;;;5074329;28;20192;-59
2023/03/25 00:30:44;;;;;;;2.30;1.90;;;;;;;;;;5074101;28;20232;-62
2023/03/25 00:33:12;;;;;;;2.83;2.00;;;;;;;;;;5074701;28;20615;-59
2023/03/25 00:35:38;;;;;;;3.43;1.80;;;;;;;;;;5074505;28;20692;-59
2023/03/25 00:38:06;;;;;;;3.63;2.07;;;;;;;;;;5074778;28;20205;-61
2023/03/25 00:40:33;;;;;;;6.53;2.27;;;;;;;;;;5074028;28;20617;-59
2023/03/25 00:43:00;;;;;;;2.67;1.90;;;;;;;;;;5073800;28;20561;-60
2023/03/25 00:45:26;;;;;;;3.00;1.93;;;;;;;;;;5073767;28;20633;-60
2023/03/25 00:47:52;;;;;;;4.83;2.00;;;;;;;;;;5074107;28;20203;-60
2023/03/25 00:50:20;;;;;;;4.37;2.03;;;;;;;;;;5073760;28;20195;-61
2023/03/25 00:52:46;;;;;;;4.23;1.90;;;;;;;;;;5073787;28;20213;-60
2023/03/25 00:55:12;;;;;;;3.13;2.00;;;;;;;;;;5073431;28;20276;-59
2023/03/25 00:57:38;;;;;;;4.20;2.07;;;;;;;;;;5071417;28;20204;-60
2023/03/25 01:00:06;;;;;;;4.00;2.00;;;;;;;;;;5071960;28;20298;-60
2023/03/25 01:02:32;;;;;;;5.60;2.03;;;;;;;;;;5073357;28;20230;-60
2023/03/25 01:04:59;;;;;;;3.40;2.07;;;;;;;;;;5073437;28;20235;-60
2023/03/25 01:07:28;;;;;;;4.50;1.90;;;;;;;;;;5073270;28;20753;-61
2023/03/25 01:09:54;;;;;;;6.40;2.67;;;;;;;;;;5073280;28;20274;-60
2023/03/25 01:12:20;;;;;;;2.67;1.93;;;;;;;;;;5073200;28;20231;-60
2023/03/25 01:14:46;;;;;;;3.40;2.20;;;;;;;;;;5073306;28;20218;-59
2023/03/25 01:17:13;;;;;;;5.00;2.13;;;;;;;;;;5073326;28;20215;-60
2023/03/25 01:19:44;;;;;;;4.37;1.90;;;;;;;;;;5073141;28;20203;-60
2023/03/25 01:22:11;;;;;;;4.63;2.00;;;;;;;;;;5069290;28;20199;-61
2023/03/25 01:24:38;;;;;;;2.73;2.07;;;;;;;;;;5073016;28;20561;-60
2023/03/25 01:27:04;;;;;;;3.50;2.40;;;;;;;;;;5072967;28;20667;-60
2023/03/25 01:29:30;;;;;;;5.27;2.70;;;;;;;;;;5072933;28;20218;-60
2023/03/25 01:31:57;;;;;;;3.50;2.47;;;;;;;;;;5072882;28;20227;-60
2023/03/25 01:34:23;;;;;;;6.20;3.03;;;;;;;;;;5072752;28;20199;-60
2023/03/25 01:36:49;;;;;;;4.40;2.90;;;;;;;;;;5072733;28;20646;-59
2023/03/25 01:39:17;;;;;;;5.30;3.20;;;;;;;;;;5072744;28;20253;-60
2023/03/25 01:41:45;;;;;;;5.87;3.10;;;;;;;;;;5072662;28;20191;-62
2023/03/25 01:44:28;;;;;;;6.20;2.97;;;;;;;;;;5072767;28;20210;-60
2023/03/25 01:46:55;;;;;;;8.27;4.13;;;;;;;;;;5072498;28;20709;-60
2023/03/25 01:49:22;;;;;;;5.17;3.23;;;;;;;;;;5072579;28;20666;-60
2023/03/25 01:51:50;;;;;;;4.57;3.50;;;;;;;;;;5072417;28;20297;-59
2023/03/25 01:54:16;;;;;;;5.07;4.07;;;;;;;;;;5072576;28;20253;-59
2023/03/25 01:56:45;;;;;;;4.40;3.93;;;;;;;;;;5072406;28;20206;-59
2023/03/25 01:59:12;;;;;;;4.90;3.57;;;;;;;;;;5072490;28;20204;-59
2023/03/25 02:01:38;;;;;;;3.67;3.33;;;;;;;;;;5072306;28;20558;-60
2023/03/25 02:04:11;;;;;;;2.50;2.30;;;;;;;;;;5072256;28;20231;-59
2023/03/25 02:06:40;;;;;;;3.33;2.33;;;;;;;;;;5072381;28;20203;-59
2023/03/25 02:09:08;;;;;;;2.27;1.90;;;;;;;;;;5072455;28;20215;-59
2023/03/25 02:11:34;;;;;;;4.03;2.50;;;;;;;;;;5072111;28;20269;-60
2023/03/25 02:14:04;;;;;;;5.23;2.93;;;;;;;;;;5072280;28;20199;-60
2023/03/25 02:16:33;;;;;;;4.30;2.30;;;;;;;;;;5071449;28;20203;-59
2023/03/25 02:19:09;;;;;;;2.47;2.20;;;;;;;;;;5071490;28;20209;-59
2023/03/25 02:21:54;;;;;;;3.40;2.40;;;;;;;;;;5071225;28;20191;-59
2023/03/25 02:24:42;;;;;;;4.33;2.60;;;;;;;;;;5071309;28;20531;-60
2023/03/25 02:27:26;;;;;;;4.37;2.60;;;;;;;;;;5071550;28;20282;-59
2023/03/25 02:30:07;;;;;;;5.50;2.63;;;;;;;;;;5071601;28;20279;-59
2023/03/25 02:32:48;;;;;;;3.30;2.80;;;;;;;;;;5068789;28;20223;-59
2023/03/25 02:35:22;;;;;;;3.70;3.27;;;;;;;;;;5068628;28;20199;-60
2023/03/25 02:38:08;;;;;;;3.70;3.27;;;;;;;;;;5071297;28;20298;-59
2023/03/25 02:40:36;;;;;;;4.17;3.10;;;;;;;;;;5071122;28;20204;-59
2023/03/25 02:43:04;;;;;;;4.70;3.33;;;;;;;;;;5071104;28;20249;-59
2023/03/25 02:45:31;;;;;;;4.47;3.70;;;;;;;;;;5071496;28;20301;-59
2023/03/25 02:47:59;;;;;;;4.20;3.57;;;;;;;;;;5075173;28;20206;-60
2023/03/25 02:50:27;;;;;;;4.17;3.87;;;;;;;;;;5075994;28;20199;-59
2023/03/25 02:52:55;;;;;;;4.50;4.10;;;;;;;;;;5075864;28;20607;-59
2023/03/25 02:55:24;;;;;;;5.53;4.20;;;;;;;;;;5075524;28;20196;-60
2023/03/25 02:57:53;;;;;;;4.40;4.00;;;;;;;;;;5075687;28;20253;-59
2023/03/25 03:00:22;;;;;;;6.60;3.80;;;;;;;;;;5075530;28;20206;-61
2023/03/25 03:02:52;;;;;;;6.27;4.03;;;;;;;;;;5075598;28;20199;-59
2023/03/25 03:05:22;;;;;;;4.07;3.40;;;;;;;;;;5075348;28;20293;-60
2023/03/25 03:07:51;;;;;;;4.60;3.47;;;;;;;;;;5075434;28;20264;-60
2023/03/25 03:10:20;;;;;;;5.37;3.47;;;;;;;;;;5075411;28;20560;-59
2023/03/25 03:12:52;;;;;;;3.97;3.57;;;;;;;;;;5075327;28;20239;-60
2023/03/25 03:15:23;;;;;;;5.00;3.47;;;;;;;;;;5075333;28;20203;-61
2023/03/25 03:17:56;;;;;;;4.47;3.17;;;;;;;;;;5075279;28;20530;-59
2023/03/25 03:20:31;;;;;;;5.17;2.87;;;;;;;;;;5075380;28;20677;-59
2023/03/25 03:23:00;;;;;;;4.40;3.30;;;;;;;;;;5075305;28;20195;-60
2023/03/25 03:25:28;;;;;;;5.00;3.30;;;;;;;;;;5075082;28;20620;-61
2023/03/25 03:27:58;;;;;;;6.87;3.10;;;;;;;;;;5075348;28;20199;-60
2023/03/25 03:30:28;;;;;;;6.40;3.40;;;;;;;;;;5075047;28;20287;-60
2023/03/25 03:32:56;;;;;;;6.07;3.00;;;;;;;;;;5074943;28;20227;-60
2023/03/25 03:35:25;;;;;;;4.63;2.80;;;;;;;;;;5075098;28;20405;-59
2023/03/25 03:37:56;;;;;;;6.77;3.07;;;;;;;;;;5075099;28;20203;-59
2023/03/25 03:40:22;;;;;;;3.80;2.40;;;;;;;;;;5074926;28;20248;-60
2023/03/25 03:42:51;;;;;;;4.97;2.70;;;;;;;;;;5075018;28;20344;-59
2023/03/25 03:45:21;;;;;;;6.10;2.80;;;;;;;;;;5074913;28;20202;-59
2023/03/25 03:47:49;;;;;;;4.33;2.60;;;;;;;;;;5074702;28;20234;-60
2023/03/25 03:50:18;;;;;;;5.10;3.10;;;;;;;;;;5074801;28;20199;-61
2023/03/25 03:52:46;;;;;;;6.27;3.00;;;;;;;;;;5074537;28;20228;-59
2023/03/25 03:55:14;;;;;;;4.93;2.90;;;;;;;;;;5074672;28;20211;-60
2023/03/25 03:57:42;;;;;;;6.40;3.37;;;;;;;;;;5074547;28;20266;-60
2023/03/25 04:00:12;;;;;;;6.73;3.07;;;;;;;;;;5074685;28;20214;-60
2023/03/25 04:02:40;;;;;;;6.53;2.97;;;;;;;;;;5074452;28;20191;-60
2023/03/25 04:05:10;;;;;;;4.40;2.80;;;;;;;;;;5074532;28;20685;-60
2023/03/25 04:07:39;;;;;;;4.60;3.00;;;;;;;;;;5073340;28;20245;-60
2023/03/25 04:10:13;;;;;;;5.77;2.67;;;;;;;;;;5074541;28;20545;-60
2023/03/25 04:12:41;;;;;;;6.27;2.63;;;;;;;;;;5074509;28;20234;-60
2023/03/25 04:15:07;;;;;;;3.53;2.30;;;;;;;;;;5074700;28;20211;-60
2023/03/25 04:17:33;;;;;;;3.97;2.47;;;;;;;;;;5074426;28;20249;-60
2023/03/25 04:20:05;;;;;;;6.07;2.87;;;;;;;;;;5074357;28;20191;-61
2023/03/25 04:22:32;;;;;;;5.87;2.67;;;;;;;;;;5074266;28;20642;-59
2023/03/25 04:24:59;;;;;;;5.03;2.30;;;;;;;;;;5074482;28;20240;-59
2023/03/25 04:27:28;;;;;;;5.60;2.63;;;;;;;;;;5074128;28;20568;-60
2023/03/25 04:29:56;;;;;;;5.33;2.73;;;;;;;;;;5073999;28;20595;-59
2023/03/25 04:32:22;;;;;;;5.40;2.30;;;;;;;;;;5073937;28;20717;-60
2023/03/25 04:34:48;;;;;;;6.27;2.40;;;;;;;;;;5073912;28;20211;-60
2023/03/25 04:37:16;;;;;;;6.17;2.47;;;;;;;;;;5073856;28;20272;-60
2023/03/25 04:39:42;;;;;;;3.97;2.37;;;;;;;;;;5073827;28;20649;-60
2023/03/25 04:42:12;;;;;;;7.73;2.33;;;;;;;;;;5073949;28;20202;-60
2023/03/25 04:44:38;;;;;;;3.87;2.23;;;;;;;;;;5073909;28;20200;-60
2023/03/25 04:47:05;;;;;;;5.50;2.40;;;;;;;;;;5073578;28;20195;-60
2023/03/25 04:49:31;;;;;;;5.53;2.60;;;;;;;;;;5073587;28;20195;-60
2023/03/25 04:51:57;;;;;;;3.17;1.90;;;;;;;;;;5073836;28;20586;-60
2023/03/25 04:54:25;;;;;;;6.83;2.23;;;;;;;;;;5073801;28;20199;-60
2023/03/25 04:56:51;;;;;;;3.47;1.93;;;;;;;;;;5073740;28;20196;-59
2023/03/25 04:59:18;;;;;;;3.07;2.00;;;;;;;;;;5073581;28;20717;-60
2023/03/25 05:01:45;;;;;;;3.93;1.93;;;;;;;;;;5073415;28;20204;-60
2023/03/25 05:04:12;;;;;;;5.40;2.03;;;;;;;;;;5073469;28;20257;-61
2023/03/25 05:06:40;;;;;;;4.57;2.77;;;;;;;;;;5073520;28;20227;-60
2023/03/25 05:09:08;;;;;;;7.27;2.20;;;;;;;;;;5073112;28;20221;-60
2023/03/25 05:11:36;;;;;;;3.13;2.20;;;;;;;;;;5073353;28;20279;-61
2023/03/25 05:14:02;;;;;;;5.40;2.10;;;;;;;;;;5073419;28;20199;-59
2023/03/25 05:16:29;;;;;;;7.33;2.30;;;;;;;;;;5073241;28;20223;-59
2023/03/25 05:18:55;;;;;;;4.03;2.23;;;;;;;;;;5073333;28;20265;-59
2023/03/25 05:21:21;;;;;;;4.07;2.10;;;;;;;;;;5073229;28;20646;-59
2023/03/25 05:23:47;;;;;;;3.63;2.33;;;;;;;;;;5073000;28;20290;-59
2023/03/25 05:26:13;;;;;;;5.23;2.57;;;;;;;;;;5073096;28;20238;-59
2023/03/25 05:28:41;;;;;;;6.03;2.43;;;;;;;;;;5073078;28;20195;-60
2023/03/25 05:31:07;;;;;;;4.77;2.70;;;;;;;;;;5072933;28;20226;-59
2023/03/25 05:33:33;;;;;;;5.00;2.70;;;;;;;;;;5072856;28;20298;-59
2023/03/25 05:36:00;;;;;;;6.70;3.47;;;;;;;;;;5072896;28;20253;-59
2023/03/25 05:38:26;;;;;;;5.83;2.97;;;;;;;;;;5073055;28;20204;-59
2023/03/25 05:40:52;;;;;;;4.93;2.33;;;;;;;;;;5072931;28;20235;-59
2023/03/25 05:43:21;;;;;;;5.13;3.07;;;;;;;;;;5072799;28;20227;-59
2023/03/25 05:45:49;;;;;;;3.67;2.83;;;;;;;;;;5072653;28;20203;-59
2023/03/25 05:48:15;;;;;;;5.20;2.90;;;;;;;;;;5072936;28;20206;-60
2023/03/25 05:50:41;;;;;;;5.93;3.20;;;;;;;;;;5072613;28;20660;-60
2023/03/25 05:53:10;;;;;;;6.97;3.67;;;;;;;;;;5072637;28;20598;-60
2023/03/25 05:55:36;;;;;;;5.30;3.43;;;;;;;;;;5072517;28;20196;-59
2023/03/25 05:58:02;;;;;;;6.40;3.10;;;;;;;;;;5072442;28;20206;-60
2023/03/25 06:00:29;;;;;;;5.87;3.57;;;;;;;;;;5072435;28;20199;-60
2023/03/25 06:02:57;;;;;;;9.30;3.63;;;;;;;;;;5072311;28;20202;-60
2023/03/25 06:05:24;;;;;;;4.43;3.20;;;;;;;;;;5072097;28;20250;-61
2023/03/25 06:07:54;;;;;;;6.30;3.70;;;;;;;;;;5072236;28;20195;-61
2023/03/25 06:10:21;;;;;;;5.30;3.63;;;;;;;;;;5072270;28;20207;-61
2023/03/25 06:12:47;;;;;;;6.47;3.63;;;;;;;;;;5072001;28;20327;-60
2023/03/25 06:15:14;;;;;;;5.33;3.10;;;;;;;;;;5070723;28;20604;-59
2023/03/25 06:17:40;;;;;;;6.00;3.23;;;;;;;;;;5071987;28;20257;-60
2023/03/25 06:20:11;;;;;;;4.57;3.00;;;;;;;;;;5072104;28;20199;-59
2023/03/25 06:22:37;;;;;;;6.97;3.40;;;;;;;;;;5071372;28;20257;-59
2023/03/25 06:25:04;;;;;;;9.07;3.57;;;;;;;;;;5072118;28;20203;-60
2023/03/25 06:27:33;;;;;;;5.43;3.40;;;;;;;;;;5071895;28;20200;-59
2023/03/25 06:29:59;;;;;;;6.77;3.23;;;;;;;;;;5071993;28;20195;-60
2023/03/25 06:32:26;;;;;;;3.23;2.90;;;;;;;;;;5071655;28;20269;-59
2023/03/25 06:34:52;;;;;;;3.67;2.63;;;;;;;;;;5071955;28;20200;-59
2023/03/25 06:37:20;;;;;;;5.60;2.90;;;;;;;;;;5071932;28;20195;-60
2023/03/25 06:39:48;;;;;;;4.47;2.70;;;;;;;;;;5071701;28;20203;-60
2023/03/25 06:42:14;;;;;;;7.80;2.97;;;;;;;;;;5071699;28;20602;-60
2023/03/25 06:44:40;;;;;;;6.57;3.20;;;;;;;;;;5071765;28;20191;-59
2023/03/25 06:47:06;;;;;;;3.73;3.00;;;;;;;;;;5071772;28;20249;-59
2023/03/25 06:49:32;;;;;;;8.07;3.50;;;;;;;;;;5071680;28;20561;-59
2023/03/25 06:51:58;;;;;;;6.40;3.33;;;;;;;;;;5071679;28;20258;-58
2023/03/25 06:54:26;;;;;;;4.23;3.20;;;;;;;;;;5071813;28;20283;-59
2023/03/25 06:56:52;;;;;;;5.17;3.30;;;;;;;;;;5071856;28;20222;-59
2023/03/25 06:59:18;;;;;;;5.37;3.20;;;;;;;;;;5071637;28;20826;-59
2023/03/25 07:01:44;;;;;;;5.13;2.87;;;;;;;;;;5071489;28;20644;-60
2023/03/25 07:04:10;;;;;;;5.20;3.33;;;;;;;;;;5071428;28;20231;-60
2023/03/25 07:06:36;;;;;;;7.17;4.07;;;;;;;;;;5071590;28;20210;-59
2023/03/25 07:09:02;;;;;;;4.63;3.20;;;;;;;;;;5071683;28;20195;-59
2023/03/25 07:11:30;;;;;;;5.70;3.30;;;;;;;;;;5071344;28;20276;-59
2023/03/25 07:13:56;;;;;;;5.73;3.23;;;;;;;;;;5071632;28;20203;-60
2023/03/25 07:16:22;;;;;;;5.30;3.10;;;;;;;;;;5071495;28;20595;-59
2023/03/25 07:18:49;;;;;;;5.87;3.30;;;;;;;;;;5071319;28;20195;-59
2023/03/25 07:21:15;;;;;;;4.93;3.80;;;;;;;;;;5071480;28;20202;-59
2023/03/25 07:23:41;;;;;;;6.37;3.67;;;;;;;;;;5071291;28;20204;-60
2023/03/25 07:26:07;;;;;;;4.83;3.20;;;;;;;;;;5071329;28;20195;-59
2023/03/25 07:28:36;;;;;;;3.83;3.03;;;;;;;;;;5071189;28;20219;-59
2023/03/25 07:31:05;;;;;;;4.70;3.30;;;;;;;;;;5071159;28;20199;-61
2023/03/25 07:33:31;;;;;;;4.23;3.00;;;;;;;;;;5073493;28;20841;-60
2023/03/25 07:35:57;;;;;;;3.47;3.13;;;;;;;;;;5075056;28;20230;-60
2023/03/25 07:38:23;;;;;;;3.80;3.10;;;;;;;;;;5075083;28;20430;-60
2023/03/25 07:40:49;;;;;;;3.63;3.17;;;;;;;;;;5074404;28;20203;-62
2023/03/25 07:43:15;;;;;;;5.93;3.57;;;;;;;;;;5074502;28;20202;-60
2023/03/25 07:45:42;;;;;;;6.13;3.33;;;;;;;;;;5074688;28;20196;-62
2023/03/25 07:48:13;;;;;;;6.30;3.03;;;;;;;;;;5074947;28;20214;-63
2023/03/25 07:50:39;;;;;;;6.40;3.30;;;;;;;;;;5074717;28;20234;-58
2023/03/25 07:53:05;;;;;;;8.60;3.00;;;;;;;;;;5074588;28;20700;-58
2023/03/25 07:55:31;;;;;;;5.37;3.50;;;;;;;;;;5074451;28;20206;-58
2023/03/25 07:57:59;;;;;;;5.93;3.33;;;;;;;;;;5074491;28;20241;-58
2023/03/25 08:00:25;;;;;;;8.57;4.57;;;;;;;;;;5074533;28;20206;-59
2023/03/25 08:02:53;;;;;;;5.33;3.27;;;;;;;;;;5074551;28;20200;-59
2023/03/25 08:05:22;;;;;;;5.27;3.80;;;;;;;;;;5072295;28;20247;-59
2023/03/25 08:07:49;;;;;;;6.23;3.93;;;;;;;;;;5072253;28;20225;-58
2023/03/25 08:10:15;;;;;;;7.90;4.30;;;;;;;;;;5073904;28;20253;-58
2023/03/25 08:12:41;;;;;;;6.73;4.30;;;;;;;;;;5074071;28;20220;-59
2023/03/25 08:15:07;;;;;;;7.13;4.63;;;;;;;;;;5074248;28;20786;-58
2023/03/25 08:17:33;;;;;;;5.67;3.80;;;;;;;;;;5073919;28;20203;-58
2023/03/25 08:20:03;;;;;;;5.33;3.90;;;;;;;;;;5074037;28;20203;-59
2023/03/25 08:22:29;;;;;;;6.53;4.60;;;;;;;;;;5073947;28;20226;-58
2023/03/25 08:24:55;;;;;;;5.50;4.20;;;;;;;;;;5073946;28;20191;-59
2023/03/25 08:27:21;;;;;;;6.20;4.07;;;;;;;;;;5073904;28;20290;-58
2023/03/25 08:29:53;;;;;;;4.90;3.90;;;;;;;;;;5073798;28;20202;-58
2023/03/25 08:32:19;;;;;;;5.60;3.97;;;;;;;;;;5073570;28;20720;-58
2023/03/25 08:34:45;;;;;;;6.70;4.07;;;;;;;;;;5073597;28;20206;-57
2023/03/25 08:37:14;;;;;;;5.77;3.77;;;;;;;;;;5073806;28;20196;-58
2023/03/25 08:39:41;;;;;;;6.87;3.50;;;;;;;;;;5073718;28;20202;-58
2023/03/25 08:42:07;;;;;;;4.60;3.40;;;;;;;;;;5073640;28;20695;-58
2023/03/25 08:44:32;;;;;;;4.60;3.60;;;;;;;;;;5072538;28;20195;-58
2023/03/25 08:46:59;;;;;;;5.60;3.50;;;;;;;;;;5073433;28;20196;-57
2023/03/25 08:49:25;;;;;;;4.37;3.27;;;;;;;;;;5073630;28;20206;-57
2023/03/25 08:51:51;;;;;;;5.73;3.00;;;;;;;;;;5073282;28;20318;-57
2023/03/25 08:54:18;;;;;;;5.80;3.17;;;;;;;;;;5073467;28;20195;-57
2023/03/25 08:56:44;;;;;;;4.97;2.43;;;;;;;;;;5073080;28;20621;-58
2023/03/25 08:59:11;;;;;;;5.50;2.30;;;;;;;;;;5073403;28;20207;-57
2023/03/25 09:01:38;;;;;;;4.47;2.60;;;;;;;;;;5073127;28;20207;-57
2023/03/25 09:04:04;;;;;;;4.83;2.37;;;;;;;;;;5072989;28;20238;-57
2023/03/25 09:06:30;;;;;;;4.23;2.50;;;;;;;;;;5073029;28;20274;-58
2023/03/25 09:08:56;;;;;;;3.23;2.17;;;;;;;;;;5073127;28;20291;-57
2023/03/25 09:11:23;;;;;;;6.17;2.40;;;;;;;;;;5073039;28;20196;-61
2023/03/25 09:16:25;;;;;;;3.50;1.40;;;;;;;;;;5545959;22;20483;-54
2023/03/25 09:18:51;;;;;;;1.87;1.30;;;;;;;;;;5027355;28;20204;-55
2023/03/25 09:21:17;;;;;;;3.30;1.73;;;;;;;;;;5032137;28;20201;-55
2023/03/25 09:23:43;;;;;;;3.70;1.77;;;;;;;;;;5032169;28;20927;-56
2023/03/25 09:26:09;;;;;;;2.90;1.50;;;;;;;;;;5032406;28;20288;-55
2023/03/25 09:28:36;;;;;;;2.83;1.60;;;;;;;;;;5032393;28;20229;-55
2023/03/25 09:31:02;;;;;;;3.90;1.70;;;;;;;;;;5032502;28;20201;-54
2023/03/25 09:33:28;;;;;;;5.97;1.87;;;;;;;;;;5032178;28;20322;-55
2023/03/25 09:35:54;;;;;;;4.50;1.47;;;;;;;;;;5032372;28;20204;-55
2023/03/25 09:38:21;;;;;;;4.07;1.10;;;;;;;;;;5032357;28;20243;-55
2023/03/25 09:40:47;;;;;;;4.23;1.43;;;;;;;;;;5032146;28;20208;-55
2023/03/25 09:43:29;;;;;;;3.73;1.60;;;;;;;;;;5032194;28;20200;-55
2023/03/25 09:45:57;;;;;;;2.80;1.50;;;;;;;;;;5031975;28;20634;-55
2023/03/25 09:48:25;;;;;;;3.87;1.63;;;;;;;;;;5031901;28;20216;-55
2023/03/25 09:50:51;;;;;;;3.50;1.50;;;;;;;;;;5031949;28;20209;-55
2023/03/25 09:53:23;;;;;;;3.87;1.50;;;;;;;;;;5031791;28;20238;-55
2023/03/25 09:55:50;;;;;;;3.60;1.50;;;;;;;;;;5031627;28;20203;-54
2023/03/25 09:58:23;;;;;;;3.53;1.50;;;;;;;;;;5031801;28;20217;-54
2023/03/25 10:00:51;;;;;;;2.90;1.40;;;;;;;;;;5031730;28;20240;-55
2023/03/25 10:03:20;;;;;;;2.60;1.30;;;;;;;;;;5031722;28;20235;-55
2023/03/25 10:05:56;;;;;;;2.83;1.50;;;;;;;;;;5031405;28;20299;-55
2023/03/25 10:08:28;;;;;;;2.27;1.40;;;;;;;;;;5031686;28;20203;-55
2023/03/25 10:10:58;;;;;;;6.67;1.90;;;;;;;;;;5031288;28;20208;-56
2023/03/25 10:13:27;;;;;;;5.67;1.60;;;;;;;;;;5031388;28;20224;-55
2023/03/25 10:15:56;;;;;;;5.77;3.60;;;;;;;;;;5031015;28;20300;-55
2023/03/25 10:18:31;;;;;;;3.93;2.20;;;;;;;;;;5031461;28;20616;-55
2023/03/25 10:21:01;;;;;;;3.57;2.10;;;;;;;;;;5031147;28;20207;-55
2023/03/25 10:23:32;;;;;;;5.73;2.73;;;;;;;;;;5031225;28;20284;-56
2023/03/25 10:26:01;;;;;;;3.70;2.53;;;;;;;;;;5031273;28;20674;-55
2023/03/25 10:28:28;;;;;;;3.57;2.33;;;;;;;;;;5031239;28;20610;-54
2023/03/25 10:30:54;;;;;;;6.43;2.60;;;;;;;;;;5031112;28;20258;-54
2023/03/25 10:33:22;;;;;;;7.07;2.80;;;;;;;;;;5031306;28;20247;-54
2023/03/25 10:35:49;;;;;;;5.20;2.80;;;;;;;;;;5031174;28;20201;-54
2023/03/25 10:38:20;;;;;;;4.57;2.77;;;;;;;;;;5031265;28;20224;-54
2023/03/25 10:40:50;;;;;;;3.43;2.10;;;;;;;;;;5031130;28;20646;-55
2023/03/25 10:43:21;;;;;;;5.37;1.90;;;;;;;;;;5031242;28;20626;-54
2023/03/25 10:45:47;;;;;;;5.50;2.27;;;;;;;;;;5030937;28;20204;-55
2023/03/25 10:48:15;;;;;;;8.60;2.33;;;;;;;;;;5030995;28;20663;-55
2023/03/25 10:50:42;;;;;;;5.27;2.00;;;;;;;;;;5030999;28;20225;-55
2023/03/25 10:53:13;;;;;;;6.60;2.53;;;;;;;;;;5031111;28;20256;-54
2023/03/25 10:55:40;;;;;;;5.60;1.83;;;;;;;;;;5030973;28;20211;-54
2023/03/25 10:58:07;;;;;;;6.37;2.20;;;;;;;;;;5031096;28;20223;-54
2023/03/25 11:00:33;;;;;;;5.63;2.10;;;;;;;;;;5030895;28;20284;-54
2023/03/25 11:03:00;;;;;;;5.00;2.20;;;;;;;;;;5030858;28;20224;-54
2023/03/25 11:05:28;;;;;;;7.60;2.37;;;;;;;;;;5030961;28;20197;-54
2023/03/25 11:07:56;;;;;;;5.20;2.17;;;;;;;;;;5032403;28;20692;-54
2023/03/25 11:10:25;;;;;;;7.00;2.47;;;;;;;;;;5035096;28;20196;-55
2023/03/25 11:12:51;;;;;;;6.60;2.37;;;;;;;;;;5034759;28;20225;-53
2023/03/25 11:15:20;;;;;;;6.27;2.40;;;;;;;;;;5034684;28;20224;-53
2023/03/25 11:17:46;;;;;;;4.63;2.13;;;;;;;;;;5034509;28;20247;-54
2023/03/25 11:20:18;;;;;;;6.80;2.40;;;;;;;;;;5034901;28;20201;-54
2023/03/25 11:22:46;;;;;;;5.57;2.40;;;;;;;;;;5030816;28;20197;-54
2023/03/25 11:25:15;;;;;;;4.50;2.40;;;;;;;;;;5034652;28;20965;-54
2023/03/25 11:27:45;;;;;;;4.93;2.30;;;;;;;;;;5034493;28;20200;-54
2023/03/25 11:30:14;;;;;;;4.40;2.07;;;;;;;;;;5034413;28;20204;-54
2023/03/25 11:32:41;;;;;;;5.23;2.00;;;;;;;;;;5034379;28;20308;-53
2023/03/25 11:35:14;;;;;;;5.60;2.00;;;;;;;;;;5034540;28;20208;-54
2023/03/25 11:37:43;;;;;;;6.43;2.13;;;;;;;;;;5034332;28;20205;-54
2023/03/25 11:40:14;;;;;;;3.63;1.87;;;;;;;;;;5034567;28;20246;-55
2023/03/25 11:42:41;;;;;;;3.83;2.00;;;;;;;;;;5034523;28;20292;-55
2023/03/25 11:45:18;;;;;;;3.70;1.90;;;;;;;;;;5034421;28;20671;-55
2023/03/25 11:47:44;;;;;;;1.90;1.70;;;;;;;;;;5034404;28;20201;-55
2023/03/25 11:50:18;;;;;;;3.77;1.50;;;;;;;;;;5034526;28;20193;-55
2023/03/25 11:52:46;;;;;;;4.50;1.63;;;;;;;;;;5033987;28;20577;-54
2023/03/25 11:55:15;;;;;;;4.33;1.50;;;;;;;;;;5034004;28;20473;-54
2023/03/25 11:57:41;;;;;;;4.73;2.00;;;;;;;;;;5033937;28;20204;-54
2023/03/25 12:00:17;;;;;;;2.93;1.70;;;;;;;;;;5034277;28;20275;-54
2023/03/25 12:02:43;;;;;;;6.33;1.60;;;;;;;;;;5034073;28;20727;-54
2023/03/25 12:05:12;;;;;;;6.07;2.03;;;;;;;;;;5033872;28;20303;-55
2023/03/25 12:07:41;;;;;;;3.03;1.70;;;;;;;;;;5033915;28;20258;-56
2023/03/25 12:10:14;;;;;;;4.27;2.13;;;;;;;;;;5034044;28;20192;-54
2023/03/25 12:12:42;;;;;;;3.53;1.77;;;;;;;;;;5033964;28;20252;-55
2023/03/25 12:15:18;;;;;;;5.80;1.90;;;;;;;;;;5033809;28;20638;-54
2023/03/25 12:17:51;;;;;;;5.37;1.90;;;;;;;;;;5033623;28;20710;-56
2023/03/25 12:20:22;;;;;;;4.13;1.70;;;;;;;;;;5032705;28;20243;-55
2023/03/25 12:22:54;;;;;;;4.57;1.57;;;;;;;;;;5033628;28;20243;-54
2023/03/25 12:25:27;;;;;;;5.10;1.87;;;;;;;;;;5033777;28;20208;-54
2023/03/25 12:27:59;;;;;;;2.30;1.40;;;;;;;;;;5033544;28;20205;-55
2023/03/25 12:30:33;;;;;;;4.47;1.60;;;;;;;;;;5033659;28;20196;-54
2023/03/25 12:33:04;;;;;;;4.80;1.87;;;;;;;;;;5033395;28;20283;-54
2023/03/25 12:35:32;;;;;;;4.17;1.70;;;;;;;;;;5033664;28;20211;-54
2023/03/25 12:38:05;;;;;;;3.93;1.87;;;;;;;;;;5033274;28;20567;-55
2023/03/25 12:40:45;;;;;;;4.57;2.00;;;;;;;;;;5033344;28;20197;-54
2023/03/25 12:43:15;;;;;;;3.37;1.00;;;;;;;;;;5033380;28;20197;-54
2023/03/25 12:45:51;;;;;;;1.30;1.10;;;;;;;;;;5032926;28;20203;-55
2023/03/25 12:48:23;;;;;;;2.73;1.40;;;;;;;;;;5033206;28;20204;-54
2023/03/25 12:50:53;;;;;;;5.40;2.43;;;;;;;;;;5033136;28;20201;-54
2023/03/25 12:53:25;;;;;;;3.57;1.67;;;;;;;;;;5033364;28;20323;-54
2023/03/25 12:55:59;;;;;;;4.33;1.77;;;;;;;;;;5032862;28;20205;-54
2023/03/25 12:58:36;;;;;;;4.63;1.57;;;;;;;;;;5033141;28;20200;-55
2023/03/25 13:01:09;;;;;;;5.63;2.00;;;;;;;;;;5032955;28;20201;-54
2023/03/25 13:03:53;;;;;;;5.00;1.90;;;;;;;;;;5033076;28;20224;-54
2023/03/25 13:06:22;;;;;;;6.73;1.70;;;;;;;;;;5032984;28;20655;-54
2023/03/25 13:08:52;;;;;;;4.47;2.13;;;;;;;;;;5033069;28;20232;-54
2023/03/25 13:11:21;;;;;;;3.37;1.47;;;;;;;;;;5032671;28;20237;-54
2023/03/25 13:13:49;;;;;;;5.77;2.47;;;;;;;;;;5032916;28;20663;-54
2023/03/25 13:16:17;;;;;;;4.67;1.77;;;;;;;;;;5032732;28;20240;-55
2023/03/25 13:18:45;;;;;;;4.97;2.00;;;;;;;;;;5032979;28;20216;-54
2023/03/25 13:21:14;;;;;;;6.03;2.03;;;;;;;;;;5032554;28;20220;-55
2023/03/25 13:23:41;;;;;;;5.13;1.73;;;;;;;;;;5032836;28;20201;-55
2023/03/25 13:26:10;;;;;;;5.03;2.10;;;;;;;;;;5032679;28;20300;-55
2023/03/25 13:28:37;;;;;;;4.13;1.90;;;;;;;;;;5032576;28;20227;-55
2023/03/25 13:31:04;;;;;;;5.10;1.70;;;;;;;;;;5031891;28;20212;-55
2023/03/25 13:33:34;;;;;;;4.43;1.90;;;;;;;;;;5032248;28;20304;-55
2023/03/25 13:36:04;;;;;;;4.50;1.87;;;;;;;;;;5032127;28;20216;-55
2023/03/25 13:38:31;;;;;;;3.20;1.80;;;;;;;;;;5032284;28;20201;-54
2023/03/25 13:41:02;;;;;;;3.43;1.50;;;;;;;;;;5032216;28;20205;-56
2023/03/25 13:43:31;;;;;;;4.17;1.83;;;;;;;;;;5031946;28;20204;-54
2023/03/25 13:46:01;;;;;;;3.27;1.70;;;;;;;;;;5031737;28;20270;-56
2023/03/25 13:48:32;;;;;;;3.83;1.40;;;;;;;;;;5030377;28;20205;-56
2023/03/25 13:51:01;;;;;;;3.10;1.40;;;;;;;;;;5031477;28;20204;-56
2023/03/25 13:53:30;;;;;;;4.03;1.50;;;;;;;;;;5031298;28;20228;-56
2023/03/25 13:56:00;;;;;;;4.83;2.10;;;;;;;;;;5031178;28;20180;-56
2023/03/25 13:58:45;;;;;;;4.30;1.83;;;;;;;;;;5031202;28;20551;-56
2023/03/25 14:01:26;;;;;;;4.67;1.70;;;;;;;;;;5030901;28;20266;-55
2023/03/25 14:04:04;;;;;;;6.27;1.70;;;;;;;;;;5013612;28;20284;-56
2023/03/25 14:06:48;;;;;;;6.87;1.80;;;;;;;;;;5031470;28;20200;-56
2023/03/25 14:09:33;;;;;;;4.13;1.50;;;;;;;;;;5031113;28;20213;-56
2023/03/25 14:12:02;;;;;;;2.60;1.50;;;;;;;;;;5030927;28;20300;-56
2023/03/25 14:14:32;;;;;;;5.00;1.70;;;;;;;;;;5031038;28;20243;-56
2023/03/25 14:17:00;;;;;;;4.03;1.80;;;;;;;;;;5030844;28;20302;-56
2023/03/25 14:19:28;;;;;;;4.60;1.70;;;;;;;;;;5030727;28;20658;-56
2023/03/25 14:21:54;;;;;;;4.23;1.70;;;;;;;;;;5030631;28;20252;-56
2023/03/25 14:24:25;;;;;;;1.87;1.23;;;;;;;;;;5031098;28;20235;-55
2023/03/25 14:26:53;;;;;;;5.10;1.93;;;;;;;;;;5031049;28;20211;-55
2023/03/25 14:29:24;;;;;;;3.13;1.40;;;;;;;;;;5030982;28;20211;-55
2023/03/25 14:32:07;;;;;;;4.80;1.70;;;;;;;;;;5030941;28;20259;-55
2023/03/25 14:34:34;;;;;;;4.70;1.73;;;;;;;;;;5030169;28;20663;-55
2023/03/25 14:37:11;;;;;;;3.80;1.43;;;;;;;;;;5030695;28;20193;-55
2023/03/25 14:39:39;;;;;;;3.30;1.50;;;;;;;;;;5030604;28;20670;-55
2023/03/25 14:42:12;;;;;;;2.87;1.20;;;;;;;;;;5029637;28;20217;-56
2023/03/25 14:44:40;;;;;;;3.80;1.97;;;;;;;;;;5029863;28;20208;-55
2023/03/25 14:47:26;;;;;;;3.23;1.70;;;;;;;;;;5030985;28;20200;-54
2023/03/25 14:49:53;;;;;;;5.13;1.67;;;;;;;;;;5031052;28;20209;-54
2023/03/25 14:52:24;;;;;;;3.23;1.80;;;;;;;;;;5031008;28;20229;-53
2023/03/25 14:54:55;;;;;;;2.80;1.50;;;;;;;;;;5031169;28;20197;-54